Norfolk, United Kingdom
Current Conditions -  °F | °C
As of 12:50 PM on Thursday 30 Oct 2014 (Local Time) from EGSH Reporting Station
Scattered Clouds Scattered Clouds  
Wind Chill: 63°   Ceiling: Unl
Heat Index: 63°   Visibility: 4mi
Dew Point: 59°   Wind: 9mph
Humidity: 88%   Direction: 200°SSW
Pressure: 30.06"   Gusts: NA
Location:  52.67°N, 1.45°E
Report Text: EGSH 301250Z 20008KT 150V240 6000 SCT016 17/15 Q1018
Loading
Personal Weather Stations






























Interactive Weather Map
Tropical Storm Tracking
New forecast layout! Learn more

10-Day Weather Forecast

Advertisements
Track Severe Weather on mobile